createdAt,value
2024-03-07T05:17:42.830Z,94.38
2024-03-07T05:20:16.498Z,94.51
2024-03-07T05:22:51.169Z,94.01
2024-03-07T05:25:19.573Z,94.28
2024-03-07T05:27:47.020Z,93.01
2024-03-07T05:30:16.250Z,93.64
2024-03-07T05:32:44.197Z,92.89
2024-03-07T05:35:12.335Z,92.52
2024-03-07T05:37:43.221Z,92.70
2024-03-07T05:40:10.666Z,91.99
2024-03-07T05:42:37.199Z,91.61
2024-03-07T05:45:04.478Z,91.60
2024-03-07T05:47:31.634Z,91.28
2024-03-07T05:49:59.530Z,91.23
2024-03-07T05:52:26.024Z,90.20
2024-03-07T05:54:52.630Z,90.33
2024-03-07T05:57:19.287Z,90.04
2024-03-07T05:59:46.851Z,89.29
2024-03-07T06:02:16.313Z,89.76
2024-03-07T06:04:44.137Z,89.80
2024-03-07T06:07:12.158Z,90.14
2024-03-07T06:09:38.928Z,89.25
2024-03-07T06:12:16.360Z,90.62
2024-03-07T06:14:50.158Z,89.82
2024-03-07T06:17:19.134Z,90.41
2024-03-07T06:19:45.704Z,89.46
2024-03-07T06:22:13.627Z,89.90
2024-03-07T06:24:41.412Z,89.80
2024-03-07T06:27:16.820Z,90.45
2024-03-07T06:29:43.423Z,90.18
2024-03-07T06:32:11.135Z,89.76
2024-03-07T06:34:37.629Z,88.83
2024-03-07T06:37:04.114Z,90.04
2024-03-07T06:39:32.275Z,88.90
2024-03-07T06:41:59.008Z,89.35
2024-03-07T06:44:26.583Z,88.35
2024-03-07T06:46:53.263Z,88.35
2024-03-07T06:49:21.898Z,87.22
2024-03-07T06:51:48.434Z,88.19
2024-03-07T06:54:15.062Z,86.74
2024-03-07T06:56:44.671Z,86.17
2024-03-07T06:59:11.426Z,84.78
2024-03-07T07:01:38.033Z,84.37
2024-03-07T07:04:05.336Z,83.41
2024-03-07T07:06:32.325Z,83.52
2024-03-07T07:09:00.466Z,83.54
2024-03-07T07:11:30.622Z,84.27
2024-03-07T07:14:01.333Z,84.05
2024-03-07T07:16:28.426Z,84.16
2024-03-07T07:18:56.405Z,84.75
2024-03-07T07:21:22.927Z,83.60
2024-03-07T07:23:49.495Z,83.55
2024-03-07T07:26:16.069Z,83.57
2024-03-07T07:28:42.721Z,83.88
2024-03-07T07:31:10.618Z,83.30
2024-03-07T07:33:37.328Z,83.17
2024-03-07T07:36:04.849Z,82.19
2024-03-07T07:38:32.814Z,81.65
2024-03-07T07:40:59.780Z,81.12
2024-03-07T07:43:33.949Z,79.86
2024-03-07T07:46:10.238Z,80.25
2024-03-07T07:48:36.934Z,79.79
2024-03-07T07:51:06.279Z,79.04
2024-03-07T07:53:33.167Z,78.13
2024-03-07T07:55:59.889Z,76.30
2024-03-07T07:58:26.375Z,73.96
2024-03-07T08:00:53.389Z,74.06
2024-03-07T08:03:23.183Z,71.93
2024-03-07T08:05:49.871Z,71.20
2024-03-07T08:08:17.899Z,69.80
2024-03-07T08:10:47.012Z,70.17
2024-03-07T08:13:14.330Z,70.17
2024-03-07T08:15:41.491Z,69.68
2024-03-07T08:18:09.682Z,69.64
2024-03-07T08:20:39.830Z,68.25
2024-03-07T08:23:06.407Z,68.31
2024-03-07T08:25:33.093Z,68.72
2024-03-07T08:28:00.019Z,68.79
2024-03-07T08:30:27.950Z,67.68
2024-03-07T08:32:56.351Z,68.23
2024-03-07T08:35:24.082Z,68.81
2024-03-07T08:37:56.730Z,70.16
2024-03-07T08:40:28.298Z,69.81
2024-03-07T08:42:56.745Z,70.71
2024-03-07T08:45:23.999Z,70.56
2024-03-07T08:47:53.103Z,70.24
2024-03-07T08:50:20.126Z,70.57
2024-03-07T08:52:48.970Z,70.79
2024-03-07T08:55:18.309Z,70.79
2024-03-07T08:57:49.583Z,71.55
2024-03-07T09:00:23.465Z,69.70
2024-03-07T09:02:53.054Z,68.83
2024-03-07T09:05:20.854Z,66.79
2024-03-07T09:07:47.927Z,65.53
2024-03-07T09:10:18.413Z,63.55
2024-03-07T09:12:47.191Z,63.53
2024-03-07T09:15:14.379Z,62.79
2024-03-07T09:17:41.005Z,61.80
2024-03-07T09:20:11.842Z,60.48
2024-03-07T09:22:38.560Z,60.51
2024-03-07T09:25:07.068Z,59.01
2024-03-07T09:27:33.593Z,61.15
2024-03-07T09:30:01.550Z,58.68
2024-03-07T09:32:29.081Z,60.14
2024-03-07T09:34:55.964Z,60.08
2024-03-07T09:37:24.693Z,59.69
2024-03-07T09:39:51.331Z,58.81
2024-03-07T09:42:19.154Z,59.67
2024-03-07T09:44:47.647Z,59.05
2024-03-07T09:47:15.947Z,59.05
2024-03-07T09:49:42.661Z,59.15
2024-03-07T09:52:12.745Z,59.17
2024-03-07T09:54:40.199Z,60.26
2024-03-07T09:57:09.102Z,60.09
2024-03-07T09:59:37.437Z,60.19
2024-03-07T10:02:06.146Z,60.40
2024-03-07T10:04:42.206Z,60.42
2024-03-07T10:07:14.806Z,59.17
2024-03-07T10:09:42.904Z,59.47
2024-03-07T10:12:13.392Z,58.25
2024-03-07T10:14:48.924Z,58.14
2024-03-07T10:17:15.864Z,57.32
2024-03-07T10:19:43.925Z,58.04
2024-03-07T10:22:10.542Z,54.46
2024-03-07T10:24:37.092Z,54.79
2024-03-07T10:27:05.509Z,56.55
2024-03-07T10:29:32.450Z,56.86
2024-03-07T10:32:04.998Z,56.41
2024-03-07T10:34:34.286Z,56.82
2024-03-07T10:37:05.019Z,57.37
2024-03-07T10:39:32.551Z,57.01
2024-03-07T10:42:06.488Z,57.42
2024-03-07T10:44:39.607Z,57.61
2024-03-07T10:47:07.279Z,57.50
2024-03-07T10:49:37.827Z,56.80
2024-03-07T10:52:12.049Z,56.29
2024-03-07T10:54:56.813Z,57.58
2024-03-07T10:57:41.370Z,55.96
2024-03-07T11:00:31.352Z,54.56
2024-03-07T11:02:58.315Z,54.66
2024-03-07T11:05:30.469Z,53.55
2024-03-07T11:08:00.262Z,54.06
2024-03-07T11:10:27.674Z,54.29
2024-03-07T11:12:55.486Z,52.66
2024-03-07T11:15:24.007Z,53.42
2024-03-07T11:17:52.048Z,53.65
2024-03-07T11:20:22.915Z,52.16
2024-03-07T11:22:50.543Z,50.62
2024-03-07T11:25:22.241Z,50.64
2024-03-07T11:27:53.251Z,50.67
2024-03-07T11:30:22.356Z,50.83
2024-03-07T11:32:51.456Z,51.31
2024-03-07T11:35:26.566Z,49.99
2024-03-07T11:37:58.413Z,51.24
2024-03-07T11:40:45.196Z,52.48
2024-03-07T11:43:13.618Z,51.89
2024-03-07T11:45:45.985Z,51.25
2024-03-07T11:48:13.186Z,51.48
2024-03-07T11:50:41.223Z,51.90
2024-03-07T11:53:09.322Z,51.68
2024-03-07T11:55:52.381Z,52.16
2024-03-07T11:58:22.504Z,51.90
2024-03-07T12:00:50.407Z,50.73
2024-03-07T12:03:22.301Z,51.38
2024-03-07T12:05:49.925Z,52.28
2024-03-07T12:08:16.657Z,51.29
2024-03-07T12:10:48.688Z,51.50
2024-03-07T12:13:16.817Z,49.57
2024-03-07T12:15:45.732Z,51.12
2024-03-07T12:18:18.542Z,50.45
2024-03-07T12:20:55.009Z,51.62
2024-03-07T12:23:24.803Z,52.21
2024-03-07T12:26:00.390Z,52.66
2024-03-07T12:28:29.710Z,53.23
2024-03-07T12:30:59.011Z,52.10
2024-03-07T12:33:28.552Z,53.09
2024-03-07T12:36:07.114Z,53.48
2024-03-07T12:38:37.437Z,54.40
2024-03-07T12:41:09.656Z,54.50
2024-03-07T12:43:36.562Z,55.36
2024-03-07T12:46:06.569Z,55.49
2024-03-07T12:48:33.364Z,55.38
2024-03-07T12:51:02.458Z,55.69
2024-03-07T12:53:30.661Z,54.68
2024-03-07T12:55:57.488Z,54.00
2024-03-07T12:58:26.790Z,53.77
2024-03-07T13:00:53.807Z,52.66
2024-03-07T13:03:21.893Z,52.94
2024-03-07T13:05:48.730Z,53.70
2024-03-07T13:08:16.010Z,53.15
2024-03-07T13:10:43.361Z,52.79
2024-03-07T13:13:13.042Z,53.45
2024-03-07T13:15:40.435Z,53.09
2024-03-07T13:18:08.619Z,53.91
2024-03-07T13:20:37.394Z,54.38
2024-03-07T13:23:04.635Z,54.75
2024-03-07T13:25:33.995Z,53.92
2024-03-07T13:28:02.004Z,54.30
2024-03-07T13:30:29.114Z,54.38
2024-03-07T13:32:56.862Z,54.41
2024-03-07T13:35:24.188Z,54.35
2024-03-07T13:37:55.120Z,54.30
2024-03-07T13:40:25.082Z,53.81
2024-03-07T13:42:53.114Z,54.76
2024-03-07T13:45:22.020Z,54.73
2024-03-07T13:47:54.158Z,55.29
2024-03-07T13:50:35.595Z,56.09
2024-03-07T13:53:14.901Z,55.93
2024-03-07T13:55:53.887Z,56.75
2024-03-07T13:58:40.317Z,56.29
2024-03-07T14:01:24.839Z,56.10
2024-03-07T14:04:24.911Z,55.64
2024-03-07T14:07:06.649Z,55.80
2024-03-07T14:09:51.072Z,57.15
2024-03-07T14:12:35.879Z,56.87
2024-03-07T14:15:41.970Z,56.76
2024-03-07T14:18:29.196Z,55.82
2024-03-07T14:21:27.915Z,56.19
2024-03-07T14:24:17.411Z,56.81
2024-03-07T14:27:10.947Z,56.74
2024-03-07T14:29:45.781Z,57.24
2024-03-07T14:32:13.313Z,56.29
2024-03-07T14:34:51.450Z,54.05
2024-03-07T14:37:24.847Z,53.90
2024-03-07T14:39:56.275Z,54.46
2024-03-07T14:42:23.517Z,54.85
2024-03-07T14:44:51.902Z,53.29
2024-03-07T14:47:21.270Z,52.90
2024-03-07T14:49:47.766Z,53.72
2024-03-07T14:52:14.601Z,53.36
2024-03-07T14:54:42.753Z,53.25
2024-03-07T14:57:11.936Z,53.61
2024-03-07T14:59:39.108Z,54.81
2024-03-07T15:02:11.733Z,54.24
2024-03-07T15:04:40.014Z,54.05
2024-03-07T15:07:06.588Z,54.51
2024-03-07T15:09:34.991Z,54.49
2024-03-07T15:12:01.727Z,54.75
2024-03-07T15:14:37.308Z,56.12
2024-03-07T15:17:07.534Z,56.45
2024-03-07T15:19:35.954Z,56.87
2024-03-07T15:22:04.020Z,57.31
2024-03-07T15:24:31.014Z,56.74
2024-03-07T15:26:58.723Z,56.92
2024-03-07T15:29:25.427Z,57.00
2024-03-07T15:31:51.983Z,57.87
2024-03-07T15:34:20.667Z,58.47
2024-03-07T15:36:47.779Z,57.74
2024-03-07T15:39:20.906Z,57.25
2024-03-07T15:41:48.774Z,57.01
2024-03-07T15:44:16.174Z,57.32
2024-03-07T15:46:42.793Z,57.42
2024-03-07T15:49:10.067Z,57.33
2024-03-07T15:51:37.963Z,56.96
2024-03-07T15:54:06.108Z,57.39
2024-03-07T15:56:32.801Z,58.27
2024-03-07T15:58:59.402Z,58.24
2024-03-07T16:01:25.994Z,57.73
2024-03-07T16:03:52.589Z,58.02
2024-03-07T16:06:19.909Z,58.09
2024-03-07T16:08:47.892Z,57.60
2024-03-07T16:11:19.901Z,58.06
2024-03-07T16:13:47.114Z,58.36
2024-03-07T16:16:14.186Z,58.76
2024-03-07T16:18:42.915Z,58.51
2024-03-07T16:21:09.558Z,58.17
2024-03-07T16:23:36.259Z,58.48
2024-03-07T16:26:05.484Z,57.59
2024-03-07T16:28:32.049Z,56.29
2024-03-07T16:31:02.311Z,56.53
2024-03-07T16:33:29.673Z,57.45
2024-03-07T16:35:58.491Z,57.73
2024-03-07T16:38:25.408Z,57.72
2024-03-07T16:40:52.994Z,57.81
2024-03-07T16:43:20.955Z,58.17
2024-03-07T16:45:47.611Z,58.32
2024-03-07T16:48:17.094Z,58.07
2024-03-07T16:50:44.752Z,58.23
2024-03-07T16:53:11.896Z,58.63
2024-03-07T16:55:38.689Z,57.89
2024-03-07T16:58:13.421Z,58.09
2024-03-07T17:00:44.018Z,57.06
2024-03-07T17:03:13.290Z,57.20
2024-03-07T17:05:42.692Z,57.12
2024-03-07T17:08:14.936Z,57.00
2024-03-07T17:10:44.175Z,57.36
2024-03-07T17:13:12.672Z,57.27
2024-03-07T17:15:39.863Z,57.66
2024-03-07T17:18:11.195Z,57.59
2024-03-07T17:20:38.339Z,57.25
2024-03-07T17:23:06.894Z,56.28
2024-03-07T17:25:34.572Z,57.08
2024-03-07T17:28:01.604Z,57.88
2024-03-07T17:30:29.955Z,55.82
2024-03-07T17:32:59.814Z,56.16
2024-03-07T17:35:30.008Z,56.51
2024-03-07T17:37:58.498Z,56.05
2024-03-07T17:40:32.291Z,56.88
2024-03-07T17:43:03.412Z,56.68
2024-03-07T17:45:34.983Z,56.17
2024-03-07T17:48:02.734Z,55.67
2024-03-07T17:50:32.381Z,55.86
2024-03-07T17:53:04.599Z,55.40
2024-03-07T17:55:34.202Z,55.87
2024-03-07T17:58:04.320Z,56.46
2024-03-07T18:00:31.402Z,56.06
2024-03-07T18:02:59.411Z,55.63
2024-03-07T18:05:30.365Z,56.48
2024-03-07T18:08:06.127Z,56.24
2024-03-07T18:10:46.525Z,55.95
2024-03-07T18:13:16.512Z,54.02
2024-03-07T18:15:43.460Z,54.68
2024-03-07T18:18:14.304Z,53.86
2024-03-07T18:20:45.458Z,53.41
2024-03-07T18:23:15.501Z,53.97
2024-03-07T18:25:43.072Z,52.78
2024-03-07T18:28:10.575Z,52.11
2024-03-07T18:30:37.545Z,52.18
2024-03-07T18:33:09.404Z,52.56
2024-03-07T18:35:39.638Z,52.09
2024-03-07T18:38:08.050Z,52.80
2024-03-07T18:40:36.217Z,51.65
2024-03-07T18:43:07.963Z,52.22
2024-03-07T18:45:36.758Z,52.08
2024-03-07T18:48:08.214Z,51.65
2024-03-07T18:50:43.647Z,52.27
2024-03-07T18:53:10.197Z,51.86
2024-03-07T18:55:38.285Z,52.25
2024-03-07T18:58:06.038Z,53.13
2024-03-07T19:00:33.445Z,52.52
2024-03-07T19:03:01.714Z,52.97
2024-03-07T19:05:29.364Z,52.86
2024-03-07T19:07:56.677Z,53.64
2024-03-07T19:10:24.146Z,54.19
2024-03-07T19:12:52.385Z,54.20
2024-03-07T19:15:19.550Z,54.25
2024-03-07T19:17:50.339Z,54.83
2024-03-07T19:20:20.381Z,54.35
2024-03-07T19:22:47.529Z,54.58
2024-03-07T19:25:18.359Z,54.70
2024-03-07T19:27:46.845Z,54.92
2024-03-07T19:30:18.756Z,55.40
2024-03-07T19:32:46.190Z,55.94
2024-03-07T19:35:14.977Z,55.74
2024-03-07T19:37:45.159Z,56.34
2024-03-07T19:40:16.055Z,56.55
2024-03-07T19:42:42.745Z,56.61
2024-03-07T19:45:14.391Z,56.95
2024-03-07T19:47:43.494Z,56.51
2024-03-07T19:50:13.408Z,55.90
2024-03-07T19:52:40.289Z,56.82
2024-03-07T19:55:08.644Z,56.50
2024-03-07T19:57:37.412Z,56.85
2024-03-07T20:00:09.949Z,56.43
2024-03-07T20:02:40.149Z,56.99
2024-03-07T20:05:10.215Z,57.01
2024-03-07T20:07:38.177Z,57.15
2024-03-07T20:10:08.236Z,56.92
2024-03-07T20:12:36.669Z,55.63
2024-03-07T20:15:03.683Z,55.62
2024-03-07T20:17:31.030Z,56.27
2024-03-07T20:19:57.847Z,55.91
2024-03-07T20:22:26.212Z,57.65
2024-03-07T20:24:53.074Z,58.40
2024-03-07T20:27:19.914Z,57.86
2024-03-07T20:29:46.491Z,56.44
2024-03-07T20:32:14.371Z,55.32
2024-03-07T20:34:45.529Z,55.24
2024-03-07T20:37:12.061Z,55.52
2024-03-07T20:39:42.061Z,55.30
2024-03-07T20:42:11.280Z,55.23
2024-03-07T20:44:39.004Z,54.80
2024-03-07T20:47:08.860Z,55.50
2024-03-07T20:49:36.847Z,55.19
2024-03-07T20:52:04.650Z,55.36
2024-03-07T20:54:31.210Z,54.74
2024-03-07T20:56:59.172Z,55.80
2024-03-07T20:59:25.835Z,55.73
2024-03-07T21:01:53.134Z,55.88
2024-03-07T21:04:21.168Z,56.31
2024-03-07T21:06:48.700Z,56.84
2024-03-07T21:09:17.897Z,56.38
2024-03-07T21:11:46.104Z,55.97
2024-03-07T21:14:14.719Z,57.34
2024-03-07T21:16:44.898Z,56.91
2024-03-07T21:19:11.868Z,57.37
2024-03-07T21:21:38.491Z,57.18
2024-03-07T21:24:05.973Z,57.48
2024-03-07T21:26:32.739Z,58.06
2024-03-07T21:28:59.362Z,59.00
2024-03-07T21:31:27.661Z,58.46
2024-03-07T21:33:54.354Z,59.70
2024-03-07T21:36:20.883Z,59.42
2024-03-07T21:38:47.508Z,60.23
2024-03-07T21:41:15.171Z,60.14
2024-03-07T21:43:41.845Z,60.96
2024-03-07T21:46:09.209Z,61.39
2024-03-07T21:48:37.339Z,61.17
2024-03-07T21:51:04.357Z,61.30
2024-03-07T21:53:31.334Z,61.87
2024-03-07T21:56:00.182Z,62.19
2024-03-07T21:58:26.843Z,61.89
2024-03-07T22:00:54.117Z,63.07
2024-03-07T22:03:20.750Z,63.55
2024-03-07T22:05:48.717Z,63.33
2024-03-07T22:08:15.913Z,62.89
2024-03-07T22:10:42.593Z,64.03
2024-03-07T22:13:10.632Z,62.64
2024-03-07T22:15:37.240Z,63.51
2024-03-07T22:18:04.867Z,63.45
2024-03-07T22:20:31.677Z,63.22
2024-03-07T22:22:59.572Z,64.10
2024-03-07T22:25:26.800Z,64.85
2024-03-07T22:27:53.958Z,64.94
2024-03-07T22:30:24.604Z,65.36
2024-03-07T22:32:52.461Z,64.85
2024-03-07T22:35:19.588Z,64.01
2024-03-07T22:37:51.441Z,63.63
2024-03-07T22:40:24.802Z,64.03
2024-03-07T22:42:52.623Z,64.75
2024-03-07T22:45:19.535Z,65.26
2024-03-07T22:47:53.988Z,64.20
2024-03-07T22:50:28.224Z,64.83
2024-03-07T22:52:57.841Z,65.22
2024-03-07T22:55:26.366Z,65.61
2024-03-07T22:57:53.348Z,65.29
2024-03-07T23:00:24.548Z,63.83
2024-03-07T23:02:51.480Z,65.16
2024-03-07T23:05:18.414Z,65.51
2024-03-07T23:07:45.276Z,65.18
2024-03-07T23:10:11.945Z,64.98
2024-03-07T23:12:40.176Z,65.34
